sensor_id;sensor_type;location;lat;lon;timestamp;P1;durP1;ratioP1;P2;durP2;ratioP2
20142;SDS011;10509;46.476;7.134;2023-04-15T00:00:05;1.63;;;0.63;;
20142;SDS011;10509;46.476;7.134;2023-04-15T00:02:31;1.83;;;0.80;;
20142;SDS011;10509;46.476;7.134;2023-04-15T00:04:57;1.43;;;0.50;;
20142;SDS011;10509;46.476;7.134;2023-04-15T00:07:23;0.93;;;0.50;;
20142;SDS011;10509;46.476;7.134;2023-04-15T00:09:49;1.37;;;0.50;;
20142;SDS011;10509;46.476;7.134;2023-04-15T00:12:19;1.53;;;0.50;;
20142;SDS011;10509;46.476;7.134;2023-04-15T00:14:45;2.30;;;0.70;;
20142;SDS011;10509;46.476;7.134;2023-04-15T00:17:11;1.20;;;0.60;;
20142;SDS011;10509;46.476;7.134;2023-04-15T00:19:38;1.90;;;0.90;;
20142;SDS011;10509;46.476;7.134;2023-04-15T00:22:04;0.83;;;0.53;;
20142;SDS011;10509;46.476;7.134;2023-04-15T00:24:31;0.93;;;0.60;;
20142;SDS011;10509;46.476;7.134;2023-04-15T00:26:57;0.77;;;0.60;;
20142;SDS011;10509;46.476;7.134;2023-04-15T00:29:23;2.27;;;0.53;;
20142;SDS011;10509;46.476;7.134;2023-04-15T00:31:50;0.90;;;0.57;;
20142;SDS011;10509;46.476;7.134;2023-04-15T00:34:16;1.20;;;0.60;;
20142;SDS011;10509;46.476;7.134;2023-04-15T00:36:42;1.50;;;0.60;;
20142;SDS011;10509;46.476;7.134;2023-04-15T00:39:08;1.53;;;0.80;;
20142;SDS011;10509;46.476;7.134;2023-04-15T00:41:34;1.40;;;0.60;;
20142;SDS011;10509;46.476;7.134;2023-04-15T00:44:03;1.07;;;0.67;;
20142;SDS011;10509;46.476;7.134;2023-04-15T00:46:30;1.50;;;0.60;;
20142;SDS011;10509;46.476;7.134;2023-04-15T00:48:56;1.07;;;0.60;;
20142;SDS011;10509;46.476;7.134;2023-04-15T00:51:22;2.80;;;0.63;;
20142;SDS011;10509;46.476;7.134;2023-04-15T00:53:49;1.70;;;0.80;;
20142;SDS011;10509;46.476;7.134;2023-04-15T00:56:16;0.77;;;0.50;;
20142;SDS011;10509;46.476;7.134;2023-04-15T00:58:42;1.20;;;0.50;;
20142;SDS011;10509;46.476;7.134;2023-04-15T01:01:08;1.70;;;0.60;;
20142;SDS011;10509;46.476;7.134;2023-04-15T01:03:34;1.20;;;0.57;;
20142;SDS011;10509;46.476;7.134;2023-04-15T01:06:00;2.10;;;0.60;;
20142;SDS011;10509;46.476;7.134;2023-04-15T01:08:28;1.83;;;0.60;;
20142;SDS011;10509;46.476;7.134;2023-04-15T01:10:55;1.13;;;0.60;;
20142;SDS011;10509;46.476;7.134;2023-04-15T01:13:22;1.50;;;0.70;;
20142;SDS011;10509;46.476;7.134;2023-04-15T01:15:49;2.03;;;0.60;;
20142;SDS011;10509;46.476;7.134;2023-04-15T01:18:15;0.87;;;0.50;;
20142;SDS011;10509;46.476;7.134;2023-04-15T01:20:41;1.93;;;0.70;;
20142;SDS011;10509;46.476;7.134;2023-04-15T01:23:08;1.20;;;0.53;;
20142;SDS011;10509;46.476;7.134;2023-04-15T01:25:34;1.17;;;0.70;;
20142;SDS011;10509;46.476;7.134;2023-04-15T01:28:01;1.10;;;0.57;;
20142;SDS011;10509;46.476;7.134;2023-04-15T01:30:27;1.53;;;0.67;;
20142;SDS011;10509;46.476;7.134;2023-04-15T01:32:53;1.87;;;0.60;;
20142;SDS011;10509;46.476;7.134;2023-04-15T01:35:20;1.93;;;0.70;;
20142;SDS011;10509;46.476;7.134;2023-04-15T01:37:46;1.13;;;0.60;;
20142;SDS011;10509;46.476;7.134;2023-04-15T01:40:12;1.43;;;0.60;;
20142;SDS011;10509;46.476;7.134;2023-04-15T01:42:39;1.30;;;0.50;;
20142;SDS011;10509;46.476;7.134;2023-04-15T01:45:05;1.23;;;0.50;;
20142;SDS011;10509;46.476;7.134;2023-04-15T01:47:32;0.70;;;0.50;;
20142;SDS011;10509;46.476;7.134;2023-04-15T01:49:58;1.10;;;0.50;;
20142;SDS011;10509;46.476;7.134;2023-04-15T01:52:24;1.80;;;0.67;;
20142;SDS011;10509;46.476;7.134;2023-04-15T01:54:50;1.53;;;0.60;;
20142;SDS011;10509;46.476;7.134;2023-04-15T01:57:16;1.33;;;0.60;;
20142;SDS011;10509;46.476;7.134;2023-04-15T01:59:42;1.10;;;0.60;;
20142;SDS011;10509;46.476;7.134;2023-04-15T02:02:08;0.80;;;0.70;;
20142;SDS011;10509;46.476;7.134;2023-04-15T02:04:34;1.57;;;0.60;;
20142;SDS011;10509;46.476;7.134;2023-04-15T02:07:00;1.37;;;0.60;;
20142;SDS011;10509;46.476;7.134;2023-04-15T02:09:26;1.40;;;0.63;;
20142;SDS011;10509;46.476;7.134;2023-04-15T02:11:52;1.20;;;0.50;;
20142;SDS011;10509;46.476;7.134;2023-04-15T02:14:18;1.57;;;0.70;;
20142;SDS011;10509;46.476;7.134;2023-04-15T02:16:44;1.17;;;0.60;;
20142;SDS011;10509;46.476;7.134;2023-04-15T02:19:10;1.30;;;0.50;;
20142;SDS011;10509;46.476;7.134;2023-04-15T02:21:37;1.93;;;0.60;;
20142;SDS011;10509;46.476;7.134;2023-04-15T02:24:04;0.90;;;0.50;;
20142;SDS011;10509;46.476;7.134;2023-04-15T02:26:30;3.20;;;0.60;;
20142;SDS011;10509;46.476;7.134;2023-04-15T02:28:57;1.67;;;0.50;;
20142;SDS011;10509;46.476;7.134;2023-04-15T02:31:23;1.00;;;0.60;;
20142;SDS011;10509;46.476;7.134;2023-04-15T02:33:50;1.60;;;0.50;;
20142;SDS011;10509;46.476;7.134;2023-04-15T02:36:16;0.90;;;0.50;;
20142;SDS011;10509;46.476;7.134;2023-04-15T02:38:42;1.10;;;0.50;;
20142;SDS011;10509;46.476;7.134;2023-04-15T02:41:08;1.10;;;0.47;;
20142;SDS011;10509;46.476;7.134;2023-04-15T02:43:34;1.03;;;0.60;;
20142;SDS011;10509;46.476;7.134;2023-04-15T02:46:00;1.60;;;0.53;;
20142;SDS011;10509;46.476;7.134;2023-04-15T02:48:26;0.90;;;0.50;;
20142;SDS011;10509;46.476;7.134;2023-04-15T02:50:52;1.10;;;0.50;;
20142;SDS011;10509;46.476;7.134;2023-04-15T02:53:18;0.73;;;0.50;;
20142;SDS011;10509;46.476;7.134;2023-04-15T02:55:45;1.20;;;0.40;;
20142;SDS011;10509;46.476;7.134;2023-04-15T02:58:11;0.90;;;0.50;;
20142;SDS011;10509;46.476;7.134;2023-04-15T03:00:37;4.27;;;0.70;;
20142;SDS011;10509;46.476;7.134;2023-04-15T03:03:04;1.20;;;0.60;;
20142;SDS011;10509;46.476;7.134;2023-04-15T03:05:30;1.27;;;0.60;;
20142;SDS011;10509;46.476;7.134;2023-04-15T03:07:56;1.70;;;0.63;;
20142;SDS011;10509;46.476;7.134;2023-04-15T03:10:22;1.20;;;0.50;;
20142;SDS011;10509;46.476;7.134;2023-04-15T03:12:48;1.20;;;0.50;;
20142;SDS011;10509;46.476;7.134;2023-04-15T03:15:14;1.83;;;0.60;;
20142;SDS011;10509;46.476;7.134;2023-04-15T03:17:41;1.60;;;0.53;;
20142;SDS011;10509;46.476;7.134;2023-04-15T03:20:07;0.97;;;0.50;;
20142;SDS011;10509;46.476;7.134;2023-04-15T03:22:34;1.70;;;0.50;;
20142;SDS011;10509;46.476;7.134;2023-04-15T03:25:00;1.30;;;0.60;;
20142;SDS011;10509;46.476;7.134;2023-04-15T03:27:26;1.67;;;0.70;;
20142;SDS011;10509;46.476;7.134;2023-04-15T03:29:52;1.37;;;0.70;;
20142;SDS011;10509;46.476;7.134;2023-04-15T03:32:18;0.87;;;0.50;;
20142;SDS011;10509;46.476;7.134;2023-04-15T03:34:44;1.50;;;0.70;;
20142;SDS011;10509;46.476;7.134;2023-04-15T03:37:10;1.67;;;0.60;;
20142;SDS011;10509;46.476;7.134;2023-04-15T03:39:36;1.57;;;0.67;;
20142;SDS011;10509;46.476;7.134;2023-04-15T03:42:02;1.53;;;0.73;;
20142;SDS011;10509;46.476;7.134;2023-04-15T03:44:28;1.20;;;0.57;;
20142;SDS011;10509;46.476;7.134;2023-04-15T03:46:54;1.40;;;0.70;;
20142;SDS011;10509;46.476;7.134;2023-04-15T03:49:20;1.13;;;0.60;;
20142;SDS011;10509;46.476;7.134;2023-04-15T03:51:47;1.00;;;0.60;;
20142;SDS011;10509;46.476;7.134;2023-04-15T03:54:13;2.07;;;0.70;;
20142;SDS011;10509;46.476;7.134;2023-04-15T03:56:39;2.13;;;0.80;;
20142;SDS011;10509;46.476;7.134;2023-04-15T03:59:05;1.53;;;0.70;;
20142;SDS011;10509;46.476;7.134;2023-04-15T04:01:31;1.33;;;0.60;;
20142;SDS011;10509;46.476;7.134;2023-04-15T04:03:57;1.83;;;0.70;;
20142;SDS011;10509;46.476;7.134;2023-04-15T04:06:23;1.20;;;0.60;;
20142;SDS011;10509;46.476;7.134;2023-04-15T04:08:50;1.90;;;0.70;;
20142;SDS011;10509;46.476;7.134;2023-04-15T04:11:16;1.20;;;0.50;;
20142;SDS011;10509;46.476;7.134;2023-04-15T04:13:42;1.77;;;0.60;;
20142;SDS011;10509;46.476;7.134;2023-04-15T04:16:08;1.40;;;0.60;;
20142;SDS011;10509;46.476;7.134;2023-04-15T04:18:34;1.80;;;0.80;;
20142;SDS011;10509;46.476;7.134;2023-04-15T04:21:01;1.40;;;0.60;;
20142;SDS011;10509;46.476;7.134;2023-04-15T04:23:26;0.80;;;0.53;;
20142;SDS011;10509;46.476;7.134;2023-04-15T04:25:53;0.80;;;0.60;;
20142;SDS011;10509;46.476;7.134;2023-04-15T04:28:19;1.50;;;0.57;;
20142;SDS011;10509;46.476;7.134;2023-04-15T04:30:45;1.47;;;0.60;;
20142;SDS011;10509;46.476;7.134;2023-04-15T04:33:11;1.87;;;0.60;;
20142;SDS011;10509;46.476;7.134;2023-04-15T04:35:37;1.47;;;0.60;;
20142;SDS011;10509;46.476;7.134;2023-04-15T04:38:03;1.43;;;0.60;;
20142;SDS011;10509;46.476;7.134;2023-04-15T04:40:29;1.20;;;0.57;;
20142;SDS011;10509;46.476;7.134;2023-04-15T04:42:55;1.10;;;0.70;;
20142;SDS011;10509;46.476;7.134;2023-04-15T04:45:21;1.60;;;0.80;;
20142;SDS011;10509;46.476;7.134;2023-04-15T04:47:47;1.33;;;0.60;;
20142;SDS011;10509;46.476;7.134;2023-04-15T04:50:13;1.23;;;0.70;;
20142;SDS011;10509;46.476;7.134;2023-04-15T04:52:40;1.13;;;0.60;;
20142;SDS011;10509;46.476;7.134;2023-04-15T04:55:06;1.63;;;0.70;;
20142;SDS011;10509;46.476;7.134;2023-04-15T04:57:33;1.77;;;0.70;;
20142;SDS011;10509;46.476;7.134;2023-04-15T05:00:04;1.60;;;0.80;;
20142;SDS011;10509;46.476;7.134;2023-04-15T05:02:30;1.67;;;0.80;;
20142;SDS011;10509;46.476;7.134;2023-04-15T05:04:56;1.43;;;0.80;;
20142;SDS011;10509;46.476;7.134;2023-04-15T05:07:22;2.67;;;1.10;;
20142;SDS011;10509;46.476;7.134;2023-04-15T05:09:48;1.30;;;0.83;;
20142;SDS011;10509;46.476;7.134;2023-04-15T05:12:14;1.40;;;0.90;;
20142;SDS011;10509;46.476;7.134;2023-04-15T05:14:42;1.60;;;0.70;;
20142;SDS011;10509;46.476;7.134;2023-04-15T05:17:08;0.93;;;0.60;;
20142;SDS011;10509;46.476;7.134;2023-04-15T05:19:35;1.70;;;0.50;;
20142;SDS011;10509;46.476;7.134;2023-04-15T05:22:01;1.30;;;0.50;;
20142;SDS011;10509;46.476;7.134;2023-04-15T05:24:27;1.23;;;0.70;;
20142;SDS011;10509;46.476;7.134;2023-04-15T05:26:53;1.30;;;0.67;;
20142;SDS011;10509;46.476;7.134;2023-04-15T05:29:20;2.20;;;0.60;;
20142;SDS011;10509;46.476;7.134;2023-04-15T05:31:46;1.23;;;0.63;;
20142;SDS011;10509;46.476;7.134;2023-04-15T05:34:12;1.43;;;0.73;;
20142;SDS011;10509;46.476;7.134;2023-04-15T05:36:40;0.90;;;0.50;;
20142;SDS011;10509;46.476;7.134;2023-04-15T05:39:06;1.57;;;0.83;;
20142;SDS011;10509;46.476;7.134;2023-04-15T05:41:33;1.13;;;0.70;;
20142;SDS011;10509;46.476;7.134;2023-04-15T05:43:59;1.10;;;0.60;;
20142;SDS011;10509;46.476;7.134;2023-04-15T05:46:25;0.80;;;0.67;;
20142;SDS011;10509;46.476;7.134;2023-04-15T05:48:51;1.47;;;0.70;;
20142;SDS011;10509;46.476;7.134;2023-04-15T05:51:17;1.07;;;0.70;;
20142;SDS011;10509;46.476;7.134;2023-04-15T05:53:43;1.13;;;0.60;;
20142;SDS011;10509;46.476;7.134;2023-04-15T05:56:10;1.33;;;0.60;;
20142;SDS011;10509;46.476;7.134;2023-04-15T05:58:36;1.20;;;0.70;;
20142;SDS011;10509;46.476;7.134;2023-04-15T06:01:02;1.10;;;0.70;;
20142;SDS011;10509;46.476;7.134;2023-04-15T06:03:28;0.93;;;0.60;;
20142;SDS011;10509;46.476;7.134;2023-04-15T06:05:54;1.77;;;0.97;;
20142;SDS011;10509;46.476;7.134;2023-04-15T06:08:20;1.23;;;0.70;;
20142;SDS011;10509;46.476;7.134;2023-04-15T06:10:46;0.87;;;0.60;;
20142;SDS011;10509;46.476;7.134;2023-04-15T06:13:12;1.20;;;0.70;;
20142;SDS011;10509;46.476;7.134;2023-04-15T06:15:38;1.20;;;0.70;;
20142;SDS011;10509;46.476;7.134;2023-04-15T06:18:05;1.10;;;0.60;;
20142;SDS011;10509;46.476;7.134;2023-04-15T06:20:31;1.70;;;0.83;;
20142;SDS011;10509;46.476;7.134;2023-04-15T06:22:57;1.40;;;0.70;;
20142;SDS011;10509;46.476;7.134;2023-04-15T06:25:23;1.63;;;0.70;;
20142;SDS011;10509;46.476;7.134;2023-04-15T06:27:49;0.90;;;0.70;;
20142;SDS011;10509;46.476;7.134;2023-04-15T06:30:15;1.07;;;0.60;;
20142;SDS011;10509;46.476;7.134;2023-04-15T06:32:41;1.73;;;0.60;;
20142;SDS011;10509;46.476;7.134;2023-04-15T06:35:07;1.23;;;0.67;;
20142;SDS011;10509;46.476;7.134;2023-04-15T06:37:33;1.33;;;0.87;;
20142;SDS011;10509;46.476;7.134;2023-04-15T06:40:00;1.27;;;0.70;;
20142;SDS011;10509;46.476;7.134;2023-04-15T06:42:26;1.27;;;0.60;;
20142;SDS011;10509;46.476;7.134;2023-04-15T06:44:52;1.17;;;0.77;;
20142;SDS011;10509;46.476;7.134;2023-04-15T06:47:18;0.83;;;0.50;;
20142;SDS011;10509;46.476;7.134;2023-04-15T06:49:44;1.20;;;0.73;;
20142;SDS011;10509;46.476;7.134;2023-04-15T06:52:10;0.97;;;0.70;;
20142;SDS011;10509;46.476;7.134;2023-04-15T06:54:36;1.00;;;0.80;;
20142;SDS011;10509;46.476;7.134;2023-04-15T06:57:02;0.83;;;0.67;;
20142;SDS011;10509;46.476;7.134;2023-04-15T06:59:28;1.03;;;0.90;;
20142;SDS011;10509;46.476;7.134;2023-04-15T07:01:55;1.93;;;1.30;;
20142;SDS011;10509;46.476;7.134;2023-04-15T07:04:21;2.83;;;2.57;;
20142;SDS011;10509;46.476;7.134;2023-04-15T07:06:47;1.57;;;0.80;;
20142;SDS011;10509;46.476;7.134;2023-04-15T07:09:13;1.23;;;0.87;;
20142;SDS011;10509;46.476;7.134;2023-04-15T07:11:39;1.57;;;1.00;;
20142;SDS011;10509;46.476;7.134;2023-04-15T07:14:05;1.87;;;1.00;;
20142;SDS011;10509;46.476;7.134;2023-04-15T07:16:31;1.33;;;1.00;;
20142;SDS011;10509;46.476;7.134;2023-04-15T07:18:57;1.17;;;1.00;;
20142;SDS011;10509;46.476;7.134;2023-04-15T07:21:24;1.10;;;0.90;;
20142;SDS011;10509;46.476;7.134;2023-04-15T07:23:51;0.77;;;0.67;;
20142;SDS011;10509;46.476;7.134;2023-04-15T07:26:17;1.17;;;0.83;;
20142;SDS011;10509;46.476;7.134;2023-04-15T07:28:43;1.20;;;0.70;;
20142;SDS011;10509;46.476;7.134;2023-04-15T07:31:11;1.37;;;0.80;;
20142;SDS011;10509;46.476;7.134;2023-04-15T07:33:37;1.83;;;0.60;;
20142;SDS011;10509;46.476;7.134;2023-04-15T07:36:03;0.83;;;0.60;;
20142;SDS011;10509;46.476;7.134;2023-04-15T07:38:29;1.97;;;0.73;;
20142;SDS011;10509;46.476;7.134;2023-04-15T07:40:55;1.03;;;0.60;;
20142;SDS011;10509;46.476;7.134;2023-04-15T07:43:22;2.50;;;0.60;;
20142;SDS011;10509;46.476;7.134;2023-04-15T07:45:48;1.50;;;1.10;;
20142;SDS011;10509;46.476;7.134;2023-04-15T07:48:14;2.03;;;0.70;;
20142;SDS011;10509;46.476;7.134;2023-04-15T07:50:40;1.80;;;1.50;;
20142;SDS011;10509;46.476;7.134;2023-04-15T07:53:06;1.03;;;0.83;;
20142;SDS011;10509;46.476;7.134;2023-04-15T07:55:33;1.27;;;0.70;;
20142;SDS011;10509;46.476;7.134;2023-04-15T07:57:59;1.63;;;0.80;;
20142;SDS011;10509;46.476;7.134;2023-04-15T08:00:25;1.03;;;0.80;;
20142;SDS011;10509;46.476;7.134;2023-04-15T08:02:52;1.53;;;0.80;;
20142;SDS011;10509;46.476;7.134;2023-04-15T08:05:18;1.33;;;0.80;;
20142;SDS011;10509;46.476;7.134;2023-04-15T08:07:44;1.67;;;0.80;;
20142;SDS011;10509;46.476;7.134;2023-04-15T08:10:10;1.53;;;0.90;;
20142;SDS011;10509;46.476;7.134;2023-04-15T08:12:36;1.57;;;1.00;;
20142;SDS011;10509;46.476;7.134;2023-04-15T08:15:03;1.70;;;0.90;;
20142;SDS011;10509;46.476;7.134;2023-04-15T08:17:29;1.53;;;1.00;;
20142;SDS011;10509;46.476;7.134;2023-04-15T08:19:55;1.57;;;0.80;;
20142;SDS011;10509;46.476;7.134;2023-04-15T08:22:21;1.00;;;0.80;;
20142;SDS011;10509;46.476;7.134;2023-04-15T08:24:47;1.33;;;0.80;;
20142;SDS011;10509;46.476;7.134;2023-04-15T08:27:13;0.73;;;0.50;;
20142;SDS011;10509;46.476;7.134;2023-04-15T08:29:39;0.67;;;0.50;;
20142;SDS011;10509;46.476;7.134;2023-04-15T08:32:05;1.10;;;0.60;;
20142;SDS011;10509;46.476;7.134;2023-04-15T08:34:32;1.87;;;0.53;;
20142;SDS011;10509;46.476;7.134;2023-04-15T08:36:58;0.40;;;0.40;;
20142;SDS011;10509;46.476;7.134;2023-04-15T08:39:24;0.70;;;0.40;;
20142;SDS011;10509;46.476;7.134;2023-04-15T08:41:55;0.90;;;0.40;;
20142;SDS011;10509;46.476;7.134;2023-04-15T08:44:23;0.40;;;0.30;;
20142;SDS011;10509;46.476;7.134;2023-04-15T08:46:50;0.30;;;0.20;;
20142;SDS011;10509;46.476;7.134;2023-04-15T08:49:16;0.60;;;0.30;;
20142;SDS011;10509;46.476;7.134;2023-04-15T08:51:44;0.50;;;0.30;;
20142;SDS011;10509;46.476;7.134;2023-04-15T08:54:10;0.43;;;0.40;;
20142;SDS011;10509;46.476;7.134;2023-04-15T08:56:37;0.50;;;0.30;;
20142;SDS011;10509;46.476;7.134;2023-04-15T08:59:03;0.50;;;0.40;;
20142;SDS011;10509;46.476;7.134;2023-04-15T09:01:30;0.60;;;0.33;;
20142;SDS011;10509;46.476;7.134;2023-04-15T09:03:56;0.40;;;0.30;;
20142;SDS011;10509;46.476;7.134;2023-04-15T09:06:23;0.67;;;0.40;;
20142;SDS011;10509;46.476;7.134;2023-04-15T09:08:50;0.50;;;0.40;;
20142;SDS011;10509;46.476;7.134;2023-04-15T09:11:17;0.90;;;0.40;;
20142;SDS011;10509;46.476;7.134;2023-04-15T09:13:43;0.60;;;0.30;;
20142;SDS011;10509;46.476;7.134;2023-04-15T09:16:10;0.30;;;0.20;;
20142;SDS011;10509;46.476;7.134;2023-04-15T09:18:37;0.40;;;0.30;;
20142;SDS011;10509;46.476;7.134;2023-04-15T09:21:03;0.40;;;0.30;;
20142;SDS011;10509;46.476;7.134;2023-04-15T09:23:30;1.20;;;0.20;;
20142;SDS011;10509;46.476;7.134;2023-04-15T09:25:57;0.10;;;0.10;;
20142;SDS011;10509;46.476;7.134;2023-04-15T09:28:24;0.17;;;0.10;;
20142;SDS011;10509;46.476;7.134;2023-04-15T09:30:52;0.20;;;0.20;;
20142;SDS011;10509;46.476;7.134;2023-04-15T09:33:20;0.50;;;0.20;;
20142;SDS011;10509;46.476;7.134;2023-04-15T09:35:59;0.20;;;0.20;;
20142;SDS011;10509;46.476;7.134;2023-04-15T09:38:26;0.77;;;0.30;;
20142;SDS011;10509;46.476;7.134;2023-04-15T09:40:52;0.30;;;0.30;;
20142;SDS011;10509;46.476;7.134;2023-04-15T09:43:19;0.43;;;0.30;;
20142;SDS011;10509;46.476;7.134;2023-04-15T09:45:52;0.60;;;0.30;;
20142;SDS011;10509;46.476;7.134;2023-04-15T09:48:19;1.23;;;0.50;;
20142;SDS011;10509;46.476;7.134;2023-04-15T09:50:46;1.47;;;0.50;;
20142;SDS011;10509;46.476;7.134;2023-04-15T09:53:21;0.40;;;0.30;;
20142;SDS011;10509;46.476;7.134;2023-04-15T09:55:57;0.60;;;0.30;;
20142;SDS011;10509;46.476;7.134;2023-04-15T09:58:30;0.60;;;0.40;;
20142;SDS011;10509;46.476;7.134;2023-04-15T10:00:58;0.20;;;0.20;;
20142;SDS011;10509;46.476;7.134;2023-04-15T10:03:30;0.27;;;0.20;;
20142;SDS011;10509;46.476;7.134;2023-04-15T10:05:57;0.53;;;0.40;;
20142;SDS011;10509;46.476;7.134;2023-04-15T10:08:25;0.40;;;0.20;;
20142;SDS011;10509;46.476;7.134;2023-04-15T10:10:52;0.10;;;0.10;;
20142;SDS011;10509;46.476;7.134;2023-04-15T10:13:19;0.10;;;0.10;;
20142;SDS011;10509;46.476;7.134;2023-04-15T10:16:05;0.10;;;0.10;;
20142;SDS011;10509;46.476;7.134;2023-04-15T10:18:33;0.60;;;0.10;;
20142;SDS011;10509;46.476;7.134;2023-04-15T10:20:59;0.10;;;0.10;;
20142;SDS011;10509;46.476;7.134;2023-04-15T10:23:26;0.20;;;0.20;;
20142;SDS011;10509;46.476;7.134;2023-04-15T10:25:52;0.20;;;0.20;;
20142;SDS011;10509;46.476;7.134;2023-04-15T10:28:19;0.20;;;0.20;;
20142;SDS011;10509;46.476;7.134;2023-04-15T10:30:47;0.37;;;0.37;;
20142;SDS011;10509;46.476;7.134;2023-04-15T10:33:14;0.97;;;0.40;;
20142;SDS011;10509;46.476;7.134;2023-04-15T10:35:41;0.13;;;0.10;;
20142;SDS011;10509;46.476;7.134;2023-04-15T10:40:51;0.50;;;0.50;;
20142;SDS011;10509;46.476;7.134;2023-04-15T10:43:24;0.10;;;0.10;;
20142;SDS011;10509;46.476;7.134;2023-04-15T10:45:52;0.30;;;0.20;;
20142;SDS011;10509;46.476;7.134;2023-04-15T10:48:18;0.10;;;0.10;;
20142;SDS011;10509;46.476;7.134;2023-04-15T10:50:54;0.20;;;0.20;;
20142;SDS011;10509;46.476;7.134;2023-04-15T10:53:27;0.30;;;0.10;;
20142;SDS011;10509;46.476;7.134;2023-04-15T10:55:54;0.20;;;0.13;;
20142;SDS011;10509;46.476;7.134;2023-04-15T10:58:22;0.10;;;0.10;;
20142;SDS011;10509;46.476;7.134;2023-04-15T11:00:49;0.10;;;0.10;;
20142;SDS011;10509;46.476;7.134;2023-04-15T11:03:37;0.20;;;0.10;;
20142;SDS011;10509;46.476;7.134;2023-04-15T11:06:04;0.20;;;0.20;;
20142;SDS011;10509;46.476;7.134;2023-04-15T11:09:18;0.10;;;0.10;;
20142;SDS011;10509;46.476;7.134;2023-04-15T11:11:19;0.20;;;0.10;;
20142;SDS011;10509;46.476;7.134;2023-04-15T11:13:49;0.20;;;0.20;;
20142;SDS011;10509;46.476;7.134;2023-04-15T11:16:19;0.10;;;0.10;;
20142;SDS011;10509;46.476;7.134;2023-04-15T11:18:52;0.20;;;0.20;;
20142;SDS011;10509;46.476;7.134;2023-04-15T11:21:19;0.20;;;0.10;;
20142;SDS011;10509;46.476;7.134;2023-04-15T11:23:49;0.30;;;0.20;;
20142;SDS011;10509;46.476;7.134;2023-04-15T11:26:15;0.13;;;0.13;;
20142;SDS011;10509;46.476;7.134;2023-04-15T11:28:42;0.10;;;0.10;;
20142;SDS011;10509;46.476;7.134;2023-04-15T11:31:12;0.13;;;0.13;;
20142;SDS011;10509;46.476;7.134;2023-04-15T11:33:58;0.10;;;0.10;;
20142;SDS011;10509;46.476;7.134;2023-04-15T11:36:26;0.10;;;0.10;;
20142;SDS011;10509;46.476;7.134;2023-04-15T11:38:52;0.10;;;0.10;;
20142;SDS011;10509;46.476;7.134;2023-04-15T11:41:21;0.10;;;0.10;;
20142;SDS011;10509;46.476;7.134;2023-04-15T11:43:48;0.20;;;0.20;;
20142;SDS011;10509;46.476;7.134;2023-04-15T11:46:14;0.17;;;0.17;;
20142;SDS011;10509;46.476;7.134;2023-04-15T11:48:41;0.10;;;0.10;;
20142;SDS011;10509;46.476;7.134;2023-04-15T11:51:08;0.27;;;0.20;;
20142;SDS011;10509;46.476;7.134;2023-04-15T11:53:44;0.20;;;0.20;;
20142;SDS011;10509;46.476;7.134;2023-04-15T11:56:18;0.23;;;0.20;;
20142;SDS011;10509;46.476;7.134;2023-04-15T11:58:45;0.40;;;0.10;;
20142;SDS011;10509;46.476;7.134;2023-04-15T12:01:11;0.20;;;0.20;;
20142;SDS011;10509;46.476;7.134;2023-04-15T12:03:55;0.40;;;0.40;;
20142;SDS011;10509;46.476;7.134;2023-04-15T12:06:23;0.40;;;0.20;;
20142;SDS011;10509;46.476;7.134;2023-04-15T12:09:10;0.20;;;0.20;;
20142;SDS011;10509;46.476;7.134;2023-04-15T12:11:44;0.20;;;0.20;;
20142;SDS011;10509;46.476;7.134;2023-04-15T12:14:11;0.10;;;0.10;;
20142;SDS011;10509;46.476;7.134;2023-04-15T12:16:41;0.10;;;0.10;;
20142;SDS011;10509;46.476;7.134;2023-04-15T12:19:09;0.10;;;0.10;;
20142;SDS011;10509;46.476;7.134;2023-04-15T12:21:36;0.10;;;0.10;;
20142;SDS011;10509;46.476;7.134;2023-04-15T12:24:03;0.20;;;0.20;;
20142;SDS011;10509;46.476;7.134;2023-04-15T12:26:34;0.40;;;0.20;;
20142;SDS011;10509;46.476;7.134;2023-04-15T12:29:01;0.10;;;0.10;;
20142;SDS011;10509;46.476;7.134;2023-04-15T12:31:28;0.27;;;0.20;;
20142;SDS011;10509;46.476;7.134;2023-04-15T12:33:55;0.63;;;0.20;;
20142;SDS011;10509;46.476;7.134;2023-04-15T12:36:21;0.10;;;0.10;;
20142;SDS011;10509;46.476;7.134;2023-04-15T12:38:47;0.30;;;0.10;;
20142;SDS011;10509;46.476;7.134;2023-04-15T12:41:13;0.10;;;0.10;;
20142;SDS011;10509;46.476;7.134;2023-04-15T12:43:40;0.27;;;0.27;;
20142;SDS011;10509;46.476;7.134;2023-04-15T12:46:06;0.20;;;0.20;;
20142;SDS011;10509;46.476;7.134;2023-04-15T12:48:32;0.73;;;0.30;;
20142;SDS011;10509;46.476;7.134;2023-04-15T12:50:59;0.20;;;0.20;;
20142;SDS011;10509;46.476;7.134;2023-04-15T12:53:25;0.30;;;0.30;;
20142;SDS011;10509;46.476;7.134;2023-04-15T12:55:51;0.20;;;0.20;;
20142;SDS011;10509;46.476;7.134;2023-04-15T12:58:17;0.10;;;0.10;;
20142;SDS011;10509;46.476;7.134;2023-04-15T13:00:43;0.30;;;0.10;;
20142;SDS011;10509;46.476;7.134;2023-04-15T13:03:09;0.10;;;0.10;;
20142;SDS011;10509;46.476;7.134;2023-04-15T13:05:36;0.10;;;0.10;;
20142;SDS011;10509;46.476;7.134;2023-04-15T13:08:03;0.10;;;0.10;;
20142;SDS011;10509;46.476;7.134;2023-04-15T13:10:29;0.10;;;0.10;;
20142;SDS011;10509;46.476;7.134;2023-04-15T13:12:56;0.13;;;0.13;;
20142;SDS011;10509;46.476;7.134;2023-04-15T13:15:22;0.10;;;0.10;;
20142;SDS011;10509;46.476;7.134;2023-04-15T13:17:49;0.10;;;0.10;;
20142;SDS011;10509;46.476;7.134;2023-04-15T13:20:16;0.10;;;0.10;;
20142;SDS011;10509;46.476;7.134;2023-04-15T13:22:42;0.10;;;0.10;;
20142;SDS011;10509;46.476;7.134;2023-04-15T13:25:08;0.10;;;0.10;;
20142;SDS011;10509;46.476;7.134;2023-04-15T13:27:34;0.57;;;0.10;;
20142;SDS011;10509;46.476;7.134;2023-04-15T13:30:00;0.30;;;0.20;;
20142;SDS011;10509;46.476;7.134;2023-04-15T13:32:27;0.67;;;0.20;;
20142;SDS011;10509;46.476;7.134;2023-04-15T13:34:53;0.20;;;0.10;;
20142;SDS011;10509;46.476;7.134;2023-04-15T13:37:21;0.10;;;0.10;;
20142;SDS011;10509;46.476;7.134;2023-04-15T13:39:50;0.10;;;0.10;;
20142;SDS011;10509;46.476;7.134;2023-04-15T13:42:16;0.10;;;0.10;;
20142;SDS011;10509;46.476;7.134;2023-04-15T13:44:42;3.10;;;0.10;;
20142;SDS011;10509;46.476;7.134;2023-04-15T13:47:08;0.10;;;0.10;;
20142;SDS011;10509;46.476;7.134;2023-04-15T13:49:35;0.17;;;0.17;;
20142;SDS011;10509;46.476;7.134;2023-04-15T13:52:01;0.30;;;0.20;;
20142;SDS011;10509;46.476;7.134;2023-04-15T13:54:27;0.10;;;0.10;;
20142;SDS011;10509;46.476;7.134;2023-04-15T13:56:53;0.10;;;0.10;;
20142;SDS011;10509;46.476;7.134;2023-04-15T13:59:21;0.10;;;0.10;;
20142;SDS011;10509;46.476;7.134;2023-04-15T14:01:47;0.10;;;0.10;;
20142;SDS011;10509;46.476;7.134;2023-04-15T14:04:13;0.23;;;0.10;;
20142;SDS011;10509;46.476;7.134;2023-04-15T14:06:39;0.10;;;0.10;;
20142;SDS011;10509;46.476;7.134;2023-04-15T14:09:05;0.20;;;0.20;;
20142;SDS011;10509;46.476;7.134;2023-04-15T14:11:31;0.10;;;0.10;;
20142;SDS011;10509;46.476;7.134;2023-04-15T14:13:59;0.10;;;0.10;;
20142;SDS011;10509;46.476;7.134;2023-04-15T14:16:25;0.10;;;0.10;;
20142;SDS011;10509;46.476;7.134;2023-04-15T14:18:51;0.20;;;0.20;;
20142;SDS011;10509;46.476;7.134;2023-04-15T14:21:18;0.20;;;0.20;;
20142;SDS011;10509;46.476;7.134;2023-04-15T14:23:44;0.40;;;0.30;;
20142;SDS011;10509;46.476;7.134;2023-04-15T14:26:10;0.20;;;0.20;;
20142;SDS011;10509;46.476;7.134;2023-04-15T14:28:37;0.20;;;0.20;;
20142;SDS011;10509;46.476;7.134;2023-04-15T14:31:03;0.30;;;0.30;;
20142;SDS011;10509;46.476;7.134;2023-04-15T14:33:30;0.70;;;0.30;;
20142;SDS011;10509;46.476;7.134;2023-04-15T14:35:56;0.20;;;0.20;;
20142;SDS011;10509;46.476;7.134;2023-04-15T14:38:22;0.50;;;0.40;;
20142;SDS011;10509;46.476;7.134;2023-04-15T14:40:48;0.50;;;0.50;;
20142;SDS011;10509;46.476;7.134;2023-04-15T14:43:14;0.30;;;0.30;;
20142;SDS011;10509;46.476;7.134;2023-04-15T14:45:41;0.30;;;0.20;;
20142;SDS011;10509;46.476;7.134;2023-04-15T14:48:07;0.40;;;0.20;;